sensor_id;sensor_type;location;lat;lon;timestamp;pressure;altitude;pressure_sealevel;temperature;humidity
59545;BME280;45368;55.002;-1.592;2023-06-24T00:00:41;101140.47;;;17.90;69.38
59545;BME280;45368;55.002;-1.592;2023-06-24T00:03:09;101138.75;;;17.31;70.83
59545;BME280;45368;55.002;-1.592;2023-06-24T00:05:37;101137.29;;;17.80;69.61
59545;BME280;45368;55.002;-1.592;2023-06-24T00:08:04;101135.76;;;17.32;71.35
59545;BME280;45368;55.002;-1.592;2023-06-24T00:10:31;101136.01;;;17.53;70.21
59545;BME280;45368;55.002;-1.592;2023-06-24T00:12:59;101136.16;;;18.26;69.10
59545;BME280;45368;55.002;-1.592;2023-06-24T00:15:27;101137.82;;;18.13;68.69
59545;BME280;45368;55.002;-1.592;2023-06-24T00:17:54;101137.48;;;17.78;70.23
59545;BME280;45368;55.002;-1.592;2023-06-24T00:20:22;101127.07;;;17.93;70.48
59545;BME280;45368;55.002;-1.592;2023-06-24T00:22:49;101132.25;;;17.85;70.05
59545;BME280;45368;55.002;-1.592;2023-06-24T00:25:17;101124.57;;;17.52;70.26
59545;BME280;45368;55.002;-1.592;2023-06-24T00:27:44;101120.96;;;18.11;68.63
59545;BME280;45368;55.002;-1.592;2023-06-24T00:30:12;101125.07;;;17.72;69.43
59545;BME280;45368;55.002;-1.592;2023-06-24T00:32:39;101123.02;;;17.84;69.86
59545;BME280;45368;55.002;-1.592;2023-06-24T00:35:06;101116.87;;;17.39;70.49
59545;BME280;45368;55.002;-1.592;2023-06-24T00:37:34;101112.93;;;17.07;70.85
59545;BME280;45368;55.002;-1.592;2023-06-24T00:40:02;101121.34;;;17.33;70.38
59545;BME280;45368;55.002;-1.592;2023-06-24T00:42:29;101120.64;;;18.34;67.31
59545;BME280;45368;55.002;-1.592;2023-06-24T00:44:57;101118.04;;;18.24;66.10
59545;BME280;45368;55.002;-1.592;2023-06-24T00:47:25;101124.25;;;18.21;66.73
59545;BME280;45368;55.002;-1.592;2023-06-24T00:49:53;101128.47;;;17.76;67.22
59545;BME280;45368;55.002;-1.592;2023-06-24T00:52:20;101124.28;;;18.11;66.96
59545;BME280;45368;55.002;-1.592;2023-06-24T00:54:46;101115.69;;;18.77;65.21
59545;BME280;45368;55.002;-1.592;2023-06-24T00:57:13;101117.03;;;19.06;64.17
59545;BME280;45368;55.002;-1.592;2023-06-24T00:59:42;101116.90;;;18.58;64.03
59545;BME280;45368;55.002;-1.592;2023-06-24T01:02:11;101118.31;;;18.50;64.24
59545;BME280;45368;55.002;-1.592;2023-06-24T01:04:39;101114.09;;;19.42;62.66
59545;BME280;45368;55.002;-1.592;2023-06-24T01:07:07;101111.05;;;19.01;62.08
59545;BME280;45368;55.002;-1.592;2023-06-24T01:09:35;101109.05;;;19.37;61.36
59545;BME280;45368;55.002;-1.592;2023-06-24T01:12:03;101115.94;;;18.36;63.67
59545;BME280;45368;55.002;-1.592;2023-06-24T01:14:30;101111.91;;;18.58;63.19
59545;BME280;45368;55.002;-1.592;2023-06-24T01:17:02;101114.49;;;18.81;62.51
59545;BME280;45368;55.002;-1.592;2023-06-24T01:19:49;101108.94;;;18.17;63.87
59545;BME280;45368;55.002;-1.592;2023-06-24T01:22:37;101108.93;;;18.47;63.77
59545;BME280;45368;55.002;-1.592;2023-06-24T01:25:21;101106.64;;;18.47;63.60
59545;BME280;45368;55.002;-1.592;2023-06-24T01:28:19;101105.89;;;18.50;63.38
59545;BME280;45368;55.002;-1.592;2023-06-24T01:31:05;101106.43;;;18.08;65.18
59545;BME280;45368;55.002;-1.592;2023-06-24T01:33:42;101110.33;;;18.26;64.14
59545;BME280;45368;55.002;-1.592;2023-06-24T01:36:15;101105.42;;;18.78;62.98
59545;BME280;45368;55.002;-1.592;2023-06-24T01:38:48;101103.44;;;18.80;62.86
59545;BME280;45368;55.002;-1.592;2023-06-24T01:41:22;101104.92;;;18.03;65.73
59545;BME280;45368;55.002;-1.592;2023-06-24T01:43:52;101093.42;;;17.95;65.65
59545;BME280;45368;55.002;-1.592;2023-06-24T01:46:22;101089.57;;;18.23;64.36
59545;BME280;45368;55.002;-1.592;2023-06-24T01:48:50;101092.22;;;18.84;64.07
59545;BME280;45368;55.002;-1.592;2023-06-24T01:51:23;101090.81;;;18.60;63.75
59545;BME280;45368;55.002;-1.592;2023-06-24T01:53:53;101093.92;;;19.16;62.67
59545;BME280;45368;55.002;-1.592;2023-06-24T01:56:25;101089.91;;;19.03;62.43
59545;BME280;45368;55.002;-1.592;2023-06-24T01:58:56;101089.65;;;19.67;60.50
59545;BME280;45368;55.002;-1.592;2023-06-24T02:01:25;101096.95;;;18.58;63.08
59545;BME280;45368;55.002;-1.592;2023-06-24T02:03:55;101094.05;;;18.60;62.70
59545;BME280;45368;55.002;-1.592;2023-06-24T02:06:24;101095.25;;;18.77;62.81
59545;BME280;45368;55.002;-1.592;2023-06-24T02:08:53;101091.23;;;18.91;61.20
59545;BME280;45368;55.002;-1.592;2023-06-24T02:11:23;101090.58;;;19.42;60.65
59545;BME280;45368;55.002;-1.592;2023-06-24T02:13:52;101088.56;;;18.15;63.00
59545;BME280;45368;55.002;-1.592;2023-06-24T02:16:22;101094.90;;;17.85;63.94
59545;BME280;45368;55.002;-1.592;2023-06-24T02:18:51;101095.44;;;18.28;63.29
59545;BME280;45368;55.002;-1.592;2023-06-24T02:21:18;101100.78;;;18.10;63.39
59545;BME280;45368;55.002;-1.592;2023-06-24T02:23:46;101103.13;;;18.51;61.70
59545;BME280;45368;55.002;-1.592;2023-06-24T02:26:14;101101.41;;;18.39;62.11
59545;BME280;45368;55.002;-1.592;2023-06-24T02:28:44;101116.46;;;17.50;64.78
59545;BME280;45368;55.002;-1.592;2023-06-24T02:31:12;101109.72;;;18.31;62.73
59545;BME280;45368;55.002;-1.592;2023-06-24T02:33:40;101111.46;;;18.03;63.37
59545;BME280;45368;55.002;-1.592;2023-06-24T02:36:08;101105.53;;;18.59;62.43
59545;BME280;45368;55.002;-1.592;2023-06-24T02:38:35;101102.89;;;18.19;62.75
59545;BME280;45368;55.002;-1.592;2023-06-24T02:41:03;101103.80;;;18.70;62.20
59545;BME280;45368;55.002;-1.592;2023-06-24T02:43:30;101105.90;;;18.64;62.63
59545;BME280;45368;55.002;-1.592;2023-06-24T02:45:59;101108.22;;;18.46;61.94
59545;BME280;45368;55.002;-1.592;2023-06-24T02:48:28;101105.83;;;19.07;60.60
59545;BME280;45368;55.002;-1.592;2023-06-24T02:50:58;101098.82;;;19.08;60.24
59545;BME280;45368;55.002;-1.592;2023-06-24T02:53:26;101098.52;;;19.23;59.75
59545;BME280;45368;55.002;-1.592;2023-06-24T02:55:55;101095.08;;;19.26;59.40
59545;BME280;45368;55.002;-1.592;2023-06-24T02:58:24;101098.20;;;18.68;61.22
59545;BME280;45368;55.002;-1.592;2023-06-24T03:00:51;101095.60;;;18.23;62.39
59545;BME280;45368;55.002;-1.592;2023-06-24T03:03:18;101090.44;;;19.00;60.68
59545;BME280;45368;55.002;-1.592;2023-06-24T03:05:46;101093.44;;;18.57;61.22
59545;BME280;45368;55.002;-1.592;2023-06-24T03:08:14;101092.13;;;18.33;61.90
59545;BME280;45368;55.002;-1.592;2023-06-24T03:10:41;101092.08;;;18.97;60.81
59545;BME280;45368;55.002;-1.592;2023-06-24T03:13:09;101094.95;;;18.93;61.20
59545;BME280;45368;55.002;-1.592;2023-06-24T03:15:36;101093.67;;;19.03;60.09
59545;BME280;45368;55.002;-1.592;2023-06-24T03:18:04;101094.18;;;18.40;61.76
59545;BME280;45368;55.002;-1.592;2023-06-24T03:20:32;101086.94;;;18.70;60.99
59545;BME280;45368;55.002;-1.592;2023-06-24T03:23:00;101086.38;;;18.81;61.33
59545;BME280;45368;55.002;-1.592;2023-06-24T03:25:27;101079.99;;;19.05;60.18
59545;BME280;45368;55.002;-1.592;2023-06-24T03:27:55;101081.85;;;18.94;60.08
59545;BME280;45368;55.002;-1.592;2023-06-24T03:30:22;101083.12;;;18.15;63.55
59545;BME280;45368;55.002;-1.592;2023-06-24T03:32:50;101081.54;;;19.08;60.62
59545;BME280;45368;55.002;-1.592;2023-06-24T03:35:18;101082.02;;;19.00;61.07
59545;BME280;45368;55.002;-1.592;2023-06-24T03:37:45;101076.07;;;18.71;60.99
59545;BME280;45368;55.002;-1.592;2023-06-24T03:40:13;101082.29;;;19.03;60.84
59545;BME280;45368;55.002;-1.592;2023-06-24T03:42:40;101078.12;;;18.87;60.25
59545;BME280;45368;55.002;-1.592;2023-06-24T03:45:08;101078.05;;;18.59;60.85
59545;BME280;45368;55.002;-1.592;2023-06-24T03:47:35;101079.38;;;18.78;61.20
59545;BME280;45368;55.002;-1.592;2023-06-24T03:50:03;101076.80;;;19.56;58.79
59545;BME280;45368;55.002;-1.592;2023-06-24T03:52:30;101080.90;;;18.91;59.67
59545;BME280;45368;55.002;-1.592;2023-06-24T03:54:58;101082.36;;;18.84;60.57
59545;BME280;45368;55.002;-1.592;2023-06-24T03:57:26;101083.95;;;18.41;61.63
59545;BME280;45368;55.002;-1.592;2023-06-24T03:59:53;101086.74;;;17.94;63.98
59545;BME280;45368;55.002;-1.592;2023-06-24T04:02:21;101084.95;;;18.39;61.97
59545;BME280;45368;55.002;-1.592;2023-06-24T04:04:49;101089.93;;;18.42;61.81
59545;BME280;45368;55.002;-1.592;2023-06-24T04:07:17;101085.75;;;18.69;60.57
59545;BME280;45368;55.002;-1.592;2023-06-24T04:09:44;101095.40;;;18.51;61.73
59545;BME280;45368;55.002;-1.592;2023-06-24T04:12:11;101096.41;;;18.11;62.48
59545;BME280;45368;55.002;-1.592;2023-06-24T04:14:38;101094.84;;;18.78;61.93
59545;BME280;45368;55.002;-1.592;2023-06-24T04:17:05;101100.29;;;18.69;61.75
59545;BME280;45368;55.002;-1.592;2023-06-24T04:19:33;101100.48;;;18.28;63.31
59545;BME280;45368;55.002;-1.592;2023-06-24T04:22:00;101100.01;;;17.96;63.84
59545;BME280;45368;55.002;-1.592;2023-06-24T04:24:29;101105.27;;;18.44;63.50
59545;BME280;45368;55.002;-1.592;2023-06-24T04:26:56;101105.98;;;18.08;64.34
59545;BME280;45368;55.002;-1.592;2023-06-24T04:29:23;101109.99;;;18.02;64.46
59545;BME280;45368;55.002;-1.592;2023-06-24T04:31:51;101113.78;;;17.85;64.93
59545;BME280;45368;55.002;-1.592;2023-06-24T04:34:18;101117.02;;;18.09;65.23
59545;BME280;45368;55.002;-1.592;2023-06-24T04:36:45;101117.83;;;18.55;63.89
59545;BME280;45368;55.002;-1.592;2023-06-24T04:39:13;101120.79;;;18.30;63.75
59545;BME280;45368;55.002;-1.592;2023-06-24T04:41:41;101120.55;;;18.45;63.40
59545;BME280;45368;55.002;-1.592;2023-06-24T04:44:09;101122.29;;;18.99;62.92
59545;BME280;45368;55.002;-1.592;2023-06-24T04:46:36;101129.56;;;18.40;62.95
59545;BME280;45368;55.002;-1.592;2023-06-24T04:49:04;101121.65;;;18.70;61.84
59545;BME280;45368;55.002;-1.592;2023-06-24T04:51:31;101122.02;;;19.56;60.17
59545;BME280;45368;55.002;-1.592;2023-06-24T04:53:58;101129.10;;;19.14;60.96
59545;BME280;45368;55.002;-1.592;2023-06-24T04:56:26;101127.18;;;19.34;60.58
59545;BME280;45368;55.002;-1.592;2023-06-24T04:58:53;101125.06;;;19.91;59.73
59545;BME280;45368;55.002;-1.592;2023-06-24T05:01:21;101128.07;;;18.85;62.17
59545;BME280;45368;55.002;-1.592;2023-06-24T05:03:49;101124.61;;;19.76;59.49
59545;BME280;45368;55.002;-1.592;2023-06-24T05:06:16;101128.52;;;19.11;60.77
59545;BME280;45368;55.002;-1.592;2023-06-24T05:08:44;101128.38;;;19.39;60.66
59545;BME280;45368;55.002;-1.592;2023-06-24T05:11:12;101129.84;;;19.17;61.52
59545;BME280;45368;55.002;-1.592;2023-06-24T05:13:40;101129.04;;;18.54;62.76
59545;BME280;45368;55.002;-1.592;2023-06-24T05:16:07;101129.81;;;19.37;60.79
59545;BME280;45368;55.002;-1.592;2023-06-24T05:18:34;101126.83;;;19.13;60.98
59545;BME280;45368;55.002;-1.592;2023-06-24T05:21:02;101124.45;;;19.58;60.26
59545;BME280;45368;55.002;-1.592;2023-06-24T05:23:30;101125.30;;;19.25;60.66
59545;BME280;45368;55.002;-1.592;2023-06-24T05:25:57;101126.67;;;19.91;59.61
59545;BME280;45368;55.002;-1.592;2023-06-24T05:28:25;101129.11;;;19.92;59.17
59545;BME280;45368;55.002;-1.592;2023-06-24T05:30:53;101131.00;;;19.75;59.32
59545;BME280;45368;55.002;-1.592;2023-06-24T05:33:20;101133.25;;;20.07;59.02
59545;BME280;45368;55.002;-1.592;2023-06-24T05:35:48;101138.30;;;20.34;58.23
59545;BME280;45368;55.002;-1.592;2023-06-24T05:38:16;101143.47;;;19.61;59.67
59545;BME280;45368;55.002;-1.592;2023-06-24T05:40:43;101143.61;;;19.08;61.15
59545;BME280;45368;55.002;-1.592;2023-06-24T05:43:11;101141.91;;;20.17;58.54
59545;BME280;45368;55.002;-1.592;2023-06-24T05:45:39;101138.98;;;20.97;56.09
59545;BME280;45368;55.002;-1.592;2023-06-24T05:48:06;101138.86;;;20.03;57.63
59545;BME280;45368;55.002;-1.592;2023-06-24T05:50:34;101133.55;;;20.84;56.25
59545;BME280;45368;55.002;-1.592;2023-06-24T05:53:01;101135.90;;;20.25;57.12
59545;BME280;45368;55.002;-1.592;2023-06-24T05:55:29;101129.33;;;21.08;55.18
59545;BME280;45368;55.002;-1.592;2023-06-24T05:57:57;101131.94;;;20.38;56.26
59545;BME280;45368;55.002;-1.592;2023-06-24T06:00:24;101133.16;;;19.85;57.52
59545;BME280;45368;55.002;-1.592;2023-06-24T06:02:52;101132.72;;;20.29;56.62
59545;BME280;45368;55.002;-1.592;2023-06-24T06:05:19;101133.23;;;21.26;54.75
59545;BME280;45368;55.002;-1.592;2023-06-24T06:07:46;101137.09;;;21.10;54.63
59545;BME280;45368;55.002;-1.592;2023-06-24T06:10:14;101145.23;;;20.73;55.17
59545;BME280;45368;55.002;-1.592;2023-06-24T06:12:42;101152.24;;;21.09;54.83
59545;BME280;45368;55.002;-1.592;2023-06-24T06:15:10;101152.55;;;21.16;55.09
59545;BME280;45368;55.002;-1.592;2023-06-24T06:17:37;101149.47;;;20.59;55.97
59545;BME280;45368;55.002;-1.592;2023-06-24T06:20:06;101144.00;;;20.81;55.79
59545;BME280;45368;55.002;-1.592;2023-06-24T06:22:33;101139.75;;;20.99;55.76
59545;BME280;45368;55.002;-1.592;2023-06-24T06:25:01;101134.48;;;21.23;54.29
59545;BME280;45368;55.002;-1.592;2023-06-24T06:27:28;101140.90;;;19.92;57.47
59545;BME280;45368;55.002;-1.592;2023-06-24T06:29:56;101136.11;;;20.08;57.24
59545;BME280;45368;55.002;-1.592;2023-06-24T06:32:24;101141.18;;;20.27;57.81
59545;BME280;45368;55.002;-1.592;2023-06-24T06:34:51;101141.44;;;19.93;58.70
59545;BME280;45368;55.002;-1.592;2023-06-24T06:37:19;101139.18;;;19.95;58.84
59545;BME280;45368;55.002;-1.592;2023-06-24T06:39:46;101139.81;;;20.56;57.72
59545;BME280;45368;55.002;-1.592;2023-06-24T06:42:15;101142.94;;;20.07;58.01
59545;BME280;45368;55.002;-1.592;2023-06-24T06:44:43;101142.27;;;21.22;55.65
59545;BME280;45368;55.002;-1.592;2023-06-24T06:47:11;101134.03;;;21.84;54.07
59545;BME280;45368;55.002;-1.592;2023-06-24T06:49:38;101138.85;;;21.40;54.63
59545;BME280;45368;55.002;-1.592;2023-06-24T06:52:06;101140.60;;;21.06;55.03
59545;BME280;45368;55.002;-1.592;2023-06-24T06:54:34;101148.39;;;21.01;55.02
59545;BME280;45368;55.002;-1.592;2023-06-24T06:57:02;101149.07;;;21.59;53.57
59545;BME280;45368;55.002;-1.592;2023-06-24T06:59:30;101160.33;;;20.90;55.79
59545;BME280;45368;55.002;-1.592;2023-06-24T07:01:57;101160.87;;;20.40;56.57
59545;BME280;45368;55.002;-1.592;2023-06-24T07:04:25;101155.67;;;20.66;55.41
59545;BME280;45368;55.002;-1.592;2023-06-24T07:06:51;101164.29;;;20.64;55.56
59545;BME280;45368;55.002;-1.592;2023-06-24T07:09:19;101163.94;;;21.39;54.15
59545;BME280;45368;55.002;-1.592;2023-06-24T07:11:47;101163.53;;;21.34;54.20
59545;BME280;45368;55.002;-1.592;2023-06-24T07:14:14;101167.04;;;21.20;53.65
59545;BME280;45368;55.002;-1.592;2023-06-24T07:16:42;101173.44;;;20.63;55.72
59545;BME280;45368;55.002;-1.592;2023-06-24T07:19:10;101183.49;;;20.33;55.79
59545;BME280;45368;55.002;-1.592;2023-06-24T07:21:38;101185.33;;;20.08;56.49
59545;BME280;45368;55.002;-1.592;2023-06-24T07:24:05;101187.61;;;19.47;59.06
59545;BME280;45368;55.002;-1.592;2023-06-24T07:26:33;101187.24;;;19.94;57.31
59545;BME280;45368;55.002;-1.592;2023-06-24T07:29:00;101189.63;;;20.13;57.29
59545;BME280;45368;55.002;-1.592;2023-06-24T07:31:28;101188.95;;;20.08;57.30
59545;BME280;45368;55.002;-1.592;2023-06-24T07:33:55;101188.96;;;20.87;54.57
59545;BME280;45368;55.002;-1.592;2023-06-24T07:36:23;101189.31;;;20.28;56.83
59545;BME280;45368;55.002;-1.592;2023-06-24T07:38:51;101183.06;;;21.37;54.33
59545;BME280;45368;55.002;-1.592;2023-06-24T07:41:18;101185.18;;;20.98;54.64
59545;BME280;45368;55.002;-1.592;2023-06-24T07:43:46;101184.31;;;22.00;52.58
59545;BME280;45368;55.002;-1.592;2023-06-24T07:46:14;101187.62;;;22.61;51.18
59545;BME280;45368;55.002;-1.592;2023-06-24T07:48:41;101193.65;;;21.63;52.92
59545;BME280;45368;55.002;-1.592;2023-06-24T07:51:09;101192.59;;;22.46;51.57
59545;BME280;45368;55.002;-1.592;2023-06-24T07:53:36;101193.55;;;22.64;51.34
59545;BME280;45368;55.002;-1.592;2023-06-24T07:56:04;101193.66;;;22.57;50.69
59545;BME280;45368;55.002;-1.592;2023-06-24T07:58:33;101197.13;;;22.55;50.92
59545;BME280;45368;55.002;-1.592;2023-06-24T08:01:01;101195.91;;;22.87;50.17
59545;BME280;45368;55.002;-1.592;2023-06-24T08:03:28;101197.95;;;22.98;49.81
59545;BME280;45368;55.002;-1.592;2023-06-24T08:05:55;101200.83;;;22.67;50.64
59545;BME280;45368;55.002;-1.592;2023-06-24T08:08:22;101203.18;;;21.87;51.41
59545;BME280;45368;55.002;-1.592;2023-06-24T08:10:50;101201.07;;;23.11;49.80
59545;BME280;45368;55.002;-1.592;2023-06-24T08:13:18;101207.73;;;21.51;52.13
59545;BME280;45368;55.002;-1.592;2023-06-24T08:15:45;101207.55;;;21.68;52.55
59545;BME280;45368;55.002;-1.592;2023-06-24T08:18:13;101208.81;;;21.27;52.90
59545;BME280;45368;55.002;-1.592;2023-06-24T08:20:41;101202.64;;;21.94;51.10
59545;BME280;45368;55.002;-1.592;2023-06-24T08:23:08;101201.77;;;21.99;50.99
59545;BME280;45368;55.002;-1.592;2023-06-24T08:25:35;101204.46;;;22.98;50.15
59545;BME280;45368;55.002;-1.592;2023-06-24T08:28:02;101209.69;;;23.00;49.63
59545;BME280;45368;55.002;-1.592;2023-06-24T08:30:30;101204.63;;;22.39;49.68
59545;BME280;45368;55.002;-1.592;2023-06-24T08:32:57;101207.40;;;21.68;50.78
59545;BME280;45368;55.002;-1.592;2023-06-24T08:35:25;101206.58;;;23.07;49.50
59545;BME280;45368;55.002;-1.592;2023-06-24T08:37:52;101204.96;;;22.18;50.39
59545;BME280;45368;55.002;-1.592;2023-06-24T08:40:20;101209.67;;;22.75;49.73
59545;BME280;45368;55.002;-1.592;2023-06-24T08:42:48;101210.43;;;22.60;49.90
59545;BME280;45368;55.002;-1.592;2023-06-24T08:45:15;101208.54;;;23.02;49.44
59545;BME280;45368;55.002;-1.592;2023-06-24T08:47:43;101214.78;;;22.26;50.10
59545;BME280;45368;55.002;-1.592;2023-06-24T08:50:12;101210.40;;;21.69;50.93
59545;BME280;45368;55.002;-1.592;2023-06-24T08:52:42;101203.34;;;22.15;50.09
59545;BME280;45368;55.002;-1.592;2023-06-24T08:55:13;101212.48;;;21.78;49.90
59545;BME280;45368;55.002;-1.592;2023-06-24T08:57:43;101202.81;;;22.97;49.56
59545;BME280;45368;55.002;-1.592;2023-06-24T09:00:12;101199.16;;;22.53;50.14
59545;BME280;45368;55.002;-1.592;2023-06-24T09:02:39;101199.05;;;22.75;49.39
59545;BME280;45368;55.002;-1.592;2023-06-24T09:05:08;101187.40;;;23.41;48.03
59545;BME280;45368;55.002;-1.592;2023-06-24T09:07:34;101186.15;;;23.42;47.81
59545;BME280;45368;55.002;-1.592;2023-06-24T09:10:02;101181.12;;;23.99;47.84
59545;BME280;45368;55.002;-1.592;2023-06-24T09:12:32;101187.86;;;23.12;47.74
59545;BME280;45368;55.002;-1.592;2023-06-24T09:14:59;101187.40;;;22.63;48.11
59545;BME280;45368;55.002;-1.592;2023-06-24T09:17:27;101187.65;;;22.97;48.32
59545;BME280;45368;55.002;-1.592;2023-06-24T09:20:03;101186.96;;;24.26;47.00
59545;BME280;45368;55.002;-1.592;2023-06-24T09:22:31;101187.70;;;23.95;46.52
59545;BME280;45368;55.002;-1.592;2023-06-24T09:25:01;101188.43;;;24.06;46.87
59545;BME280;45368;55.002;-1.592;2023-06-24T09:27:31;101191.12;;;24.46;45.98
59545;BME280;45368;55.002;-1.592;2023-06-24T09:29:59;101197.20;;;23.79;46.04
59545;BME280;45368;55.002;-1.592;2023-06-24T09:32:29;101196.76;;;24.50;45.52
59545;BME280;45368;55.002;-1.592;2023-06-24T09:34:57;101195.68;;;24.05;45.42
59545;BME280;45368;55.002;-1.592;2023-06-24T09:37:25;101198.88;;;23.33;45.26
59545;BME280;45368;55.002;-1.592;2023-06-24T09:39:52;101199.98;;;23.92;45.79
59545;BME280;45368;55.002;-1.592;2023-06-24T09:42:21;101199.65;;;23.74;46.19
59545;BME280;45368;55.002;-1.592;2023-06-24T09:44:53;101206.04;;;22.39;47.99
59545;BME280;45368;55.002;-1.592;2023-06-24T09:47:25;101203.59;;;23.76;47.38
59545;BME280;45368;55.002;-1.592;2023-06-24T09:49:53;101207.00;;;24.04;47.38
59545;BME280;45368;55.002;-1.592;2023-06-24T09:52:21;101215.39;;;23.45;48.01
59545;BME280;45368;55.002;-1.592;2023-06-24T09:54:51;101220.04;;;22.93;47.84
59545;BME280;45368;55.002;-1.592;2023-06-24T09:57:22;101219.18;;;22.54;48.73
59545;BME280;45368;55.002;-1.592;2023-06-24T09:59:52;101218.28;;;22.87;48.68
59545;BME280;45368;55.002;-1.592;2023-06-24T10:02:21;101211.04;;;22.58;49.14
59545;BME280;45368;55.002;-1.592;2023-06-24T10:04:49;101208.48;;;22.18;49.95
59545;BME280;45368;55.002;-1.592;2023-06-24T10:07:19;101207.07;;;22.20;49.33
59545;BME280;45368;55.002;-1.592;2023-06-24T10:09:47;101208.70;;;22.56;49.91
59545;BME280;45368;55.002;-1.592;2023-06-24T10:12:14;101202.73;;;22.64;50.64
59545;BME280;45368;55.002;-1.592;2023-06-24T10:14:42;101212.14;;;22.40;50.05
59545;BME280;45368;55.002;-1.592;2023-06-24T10:17:11;101201.42;;;22.74;48.94
59545;BME280;45368;55.002;-1.592;2023-06-24T10:19:40;101201.87;;;23.19;48.58
59545;BME280;45368;55.002;-1.592;2023-06-24T10:22:09;101201.23;;;22.21;50.28
59545;BME280;45368;55.002;-1.592;2023-06-24T10:24:38;101200.87;;;22.48;50.26
59545;BME280;45368;55.002;-1.592;2023-06-24T10:27:13;101200.87;;;21.90;49.76
59545;BME280;45368;55.002;-1.592;2023-06-24T10:29:45;101199.89;;;21.99;49.61
59545;BME280;45368;55.002;-1.592;2023-06-24T10:32:13;101198.62;;;22.71;48.53
59545;BME280;45368;55.002;-1.592;2023-06-24T10:34:41;101202.79;;;22.94;47.35
59545;BME280;45368;55.002;-1.592;2023-06-24T10:37:12;101204.57;;;22.27;48.67
59545;BME280;45368;55.002;-1.592;2023-06-24T10:39:45;101203.50;;;22.88;48.20
59545;BME280;45368;55.002;-1.592;2023-06-24T10:42:30;101203.35;;;22.98;47.51
59545;BME280;45368;55.002;-1.592;2023-06-24T10:44:58;101209.91;;;22.34;48.58
59545;BME280;45368;55.002;-1.592;2023-06-24T10:47:27;101203.83;;;22.50;48.06
59545;BME280;45368;55.002;-1.592;2023-06-24T10:49:54;101217.50;;;22.40;48.81
59545;BME280;45368;55.002;-1.592;2023-06-24T10:52:23;101209.13;;;22.86;48.47
59545;BME280;45368;55.002;-1.592;2023-06-24T10:54:51;101203.40;;;23.36;47.65
59545;BME280;45368;55.002;-1.592;2023-06-24T10:57:24;101209.96;;;23.57;46.13
59545;BME280;45368;55.002;-1.592;2023-06-24T10:59:52;101206.71;;;24.99;44.41
59545;BME280;45368;55.002;-1.592;2023-06-24T11:02:20;101207.66;;;25.38;43.04
59545;BME280;45368;55.002;-1.592;2023-06-24T11:04:49;101212.86;;;25.91;42.52
59545;BME280;45368;55.002;-1.592;2023-06-24T11:07:18;101214.40;;;25.80;41.85
59545;BME280;45368;55.002;-1.592;2023-06-24T11:09:50;101212.39;;;25.72;42.07
59545;BME280;45368;55.002;-1.592;2023-06-24T11:12:18;101205.97;;;26.12;41.86
59545;BME280;45368;55.002;-1.592;2023-06-24T11:14:45;101205.42;;;25.18;42.04
59545;BME280;45368;55.002;-1.592;2023-06-24T11:17:13;101199.12;;;25.10;42.88
59545;BME280;45368;55.002;-1.592;2023-06-24T11:19:40;101195.85;;;25.45;42.89
59545;BME280;45368;55.002;-1.592;2023-06-24T11:22:08;101191.72;;;25.59;42.03
59545;BME280;45368;55.002;-1.592;2023-06-24T11:24:35;101200.08;;;24.13;44.32
59545;BME280;45368;55.002;-1.592;2023-06-24T11:27:04;101196.68;;;25.23;44.04
59545;BME280;45368;55.002;-1.592;2023-06-24T11:29:33;101192.36;;;26.15;41.63
59545;BME280;45368;55.002;-1.592;2023-06-24T11:32:01;101186.04;;;25.84;42.46
59545;BME280;45368;55.002;-1.592;2023-06-24T11:34:30;101182.40;;;27.59;40.44
59545;BME280;45368;55.002;-1.592;2023-06-24T11:36:57;101178.94;;;28.30;38.77
59545;BME280;45368;55.002;-1.592;2023-06-24T11:39:27;101180.32;;;30.04;36.24
59545;BME280;45368;55.002;-1.592;2023-06-24T11:41:57;101174.69;;;30.90;33.78
59545;BME280;45368;55.002;-1.592;2023-06-24T11:44:25;101172.52;;;30.42;34.50
59545;BME280;45368;55.002;-1.592;2023-06-24T11:46:53;101174.11;;;30.45;35.77
59545;BME280;45368;55.002;-1.592;2023-06-24T11:49:30;101164.51;;;31.03;34.17
59545;BME280;45368;55.002;-1.592;2023-06-24T11:51:57;101165.97;;;32.26;32.59
59545;BME280;45368;55.002;-1.592;2023-06-24T11:54:25;101178.99;;;30.55;34.30
59545;BME280;45368;55.002;-1.592;2023-06-24T11:56:53;101174.66;;;30.54;34.02
59545;BME280;45368;55.002;-1.592;2023-06-24T11:59:21;101182.44;;;29.46;34.45
59545;BME280;45368;55.002;-1.592;2023-06-24T12:01:53;101185.63;;;27.04;37.58
59545;BME280;45368;55.002;-1.592;2023-06-24T12:04:22;101191.04;;;27.27;39.69
59545;BME280;45368;55.002;-1.592;2023-06-24T12:06:54;101186.58;;;25.77;42.46
59545;BME280;45368;55.002;-1.592;2023-06-24T12:09:22;101179.37;;;26.10;41.35
59545;BME280;45368;55.002;-1.592;2023-06-24T12:11:49;101188.12;;;25.95;41.29
59545;BME280;45368;55.002;-1.592;2023-06-24T12:14:17;101184.41;;;25.41;43.42
59545;BME280;45368;55.002;-1.592;2023-06-24T12:16:45;101179.69;;;26.14;43.46
59545;BME280;45368;55.002;-1.592;2023-06-24T12:19:12;101184.45;;;25.34;43.81
59545;BME280;45368;55.002;-1.592;2023-06-24T12:21:40;101182.07;;;25.73;43.75
59545;BME280;45368;55.002;-1.592;2023-06-24T12:24:07;101180.94;;;25.94;43.51
59545;BME280;45368;55.002;-1.592;2023-06-24T12:26:35;101182.77;;;25.72;43.98
59545;BME280;45368;55.002;-1.592;2023-06-24T12:29:02;101174.88;;;25.17;44.63
59545;BME280;45368;55.002;-1.592;2023-06-24T12:31:30;101181.53;;;25.51;45.46
59545;BME280;45368;55.002;-1.592;2023-06-24T12:33:58;101183.41;;;25.34;43.84
59545;BME280;45368;55.002;-1.592;2023-06-24T12:36:25;101183.69;;;24.93;43.63
59545;BME280;45368;55.002;-1.592;2023-06-24T12:38:53;101190.72;;;25.73;43.41
59545;BME280;45368;55.002;-1.592;2023-06-24T12:41:20;101180.48;;;25.15;43.81
59545;BME280;45368;55.002;-1.592;2023-06-24T12:43:48;101177.29;;;25.12;44.48
59545;BME280;45368;55.002;-1.592;2023-06-24T12:46:16;101181.19;;;25.13;43.06